Time;durP1;ratioP1;P1;durP2;ratioP2;P2;SDS_P1;SDS_P2;PMS_P1;PMS_P2;Temp;Humidity;BMP_temperature;BMP_pressure;BME280_temperature;BME280_humidity;BME280_pressure;Samples;Min_cycle;Max_cycle;Signal;HPM_P1;HPM_P2
2023/06/17 00:01:02;;;;;;;11.13;6.93;;;;;;;13.74;94.34;96625.47;5002611;28;20407;-70
2023/06/17 00:03:28;;;;;;;10.85;7.80;;;;;;;13.70;94.03;96623.88;5000088;28;20046;-69
2023/06/17 00:05:53;;;;;;;11.70;8.25;;;;;;;13.61;94.03;96629.75;5003470;28;20089;-69
2023/06/17 00:08:19;;;;;;;10.55;7.45;;;;;;;13.59;94.86;96626.59;4998752;28;20046;-69
2023/06/17 00:10:44;;;;;;;10.75;7.53;;;;;;;13.69;94.68;96625.06;5003407;28;20038;-68
2023/06/17 00:13:10;;;;;;;15.73;8.18;;;;;;;13.76;93.73;96627.84;4996017;28;20462;-69
2023/06/17 00:15:36;;;;;;;10.43;8.02;;;;;;;13.79;93.24;96627.03;5003585;28;20125;-70
2023/06/17 00:18:03;;;;;;;12.63;8.07;;;;;;;13.71;93.73;96622.72;5021164;28;20176;-68
2023/06/17 00:20:29;;;;;;;12.93;7.85;;;;;;;13.66;94.98;96623.09;5020945;28;20045;-69
2023/06/17 00:22:54;;;;;;;12.23;8.02;;;;;;;13.59;94.66;96615.59;5029290;28;20045;-69
2023/06/17 00:25:20;;;;;;;11.95;8.32;;;;;;;13.52;95.33;96618.31;5016720;28;20030;-68
2023/06/17 00:27:45;;;;;;;11.32;8.30;;;;;;;13.42;95.82;96621.84;5023965;28;20045;-68
2023/06/17 00:30:11;;;;;;;12.05;7.63;;;;;;;13.34;96.45;96615.50;5009679;28;20052;-66
2023/06/17 00:32:37;;;;;;;16.23;7.95;;;;;;;13.27;96.29;96613.50;5006908;28;20042;-68
2023/06/17 00:35:04;;;;;;;11.88;7.93;;;;;;;13.17;96.91;96615.00;4999048;28;20434;-68
2023/06/17 00:37:29;;;;;;;14.90;8.32;;;;;;;13.19;98.20;96615.41;5003060;28;20046;-67
2023/06/17 00:39:55;;;;;;;12.10;7.53;;;;;;;13.18;98.29;96607.53;5001989;28;20546;-68
2023/06/17 00:42:20;;;;;;;13.20;7.90;;;;;;;13.20;98.74;96617.00;5005924;28;20116;-67
2023/06/17 00:44:45;;;;;;;12.40;7.68;;;;;;;13.14;98.45;96615.00;5022540;28;20037;-68
2023/06/17 00:47:13;;;;;;;12.95;8.65;;;;;;;13.00;98.87;96605.50;5016696;28;20045;-69
2023/06/17 00:49:43;;;;;;;11.38;8.13;;;;;;;12.88;99.73;96605.03;5024616;28;20038;-68
2023/06/17 00:52:11;;;;;;;12.00;8.45;;;;;;;12.78;100.00;96606.53;5035224;28;20045;-66
2023/06/17 00:54:38;;;;;;;13.30;8.45;;;;;;;12.73;100.00;96601.41;5029048;28;20475;-68
2023/06/17 00:57:09;;;;;;;17.08;9.48;;;;;;;12.86;100.00;96613.69;5018741;28;20064;-67
2023/06/17 00:59:38;;;;;;;11.68;7.65;;;;;;;12.87;100.00;96606.22;5024356;28;20045;-68
2023/06/17 01:02:06;;;;;;;11.45;7.50;;;;;;;12.88;100.00;96603.09;5021573;28;20083;-67
2023/06/17 01:04:33;;;;;;;13.95;8.32;;;;;;;12.85;100.00;96601.09;5028431;28;20052;-67
2023/06/17 01:07:12;;;;;;;10.30;7.88;;;;;;;12.73;100.00;96599.47;5028357;28;20040;-68
2023/06/17 01:09:45;;;;;;;12.32;8.68;;;;;;;12.72;100.00;96602.59;5027462;28;20096;-68
2023/06/17 01:12:14;;;;;;;11.60;8.07;;;;;;;12.73;100.00;96604.16;5023022;28;20073;-67
2023/06/17 01:14:42;;;;;;;13.52;8.18;;;;;;;12.66;100.00;96602.16;5026373;28;20072;-69
2023/06/17 01:17:12;;;;;;;14.75;8.88;;;;;;;12.72;100.00;96599.84;5022817;28;20039;-68
2023/06/17 01:19:39;;;;;;;18.35;9.60;;;;;;;12.78;100.00;96596.34;5028455;28;20060;-68
2023/06/17 01:22:13;;;;;;;11.23;8.65;;;;;;;12.73;100.00;96599.47;5023750;28;20033;-67
2023/06/17 01:24:38;;;;;;;12.43;8.32;;;;;;;12.67;100.00;96598.22;5031941;28;20037;-68
2023/06/17 01:27:04;;;;;;;11.65;7.95;;;;;;;12.54;100.00;96602.47;5026939;28;20038;-66
2023/06/17 01:29:32;;;;;;;14.75;8.80;;;;;;;12.39;100.00;96594.13;5028692;28;20045;-68
2023/06/17 01:31:59;;;;;;;10.73;7.75;;;;;;;12.34;100.00;96597.22;5027730;28;20633;-69
2023/06/17 01:34:36;;;;;;;15.73;9.18;;;;;;;12.36;100.00;96592.13;5023445;28;20049;-69
2023/06/17 01:37:08;;;;;;;14.60;8.20;;;;;;;12.52;100.00;96591.84;5026750;28;20046;-67
2023/06/17 01:39:36;;;;;;;13.10;9.20;;;;;;;12.52;100.00;96586.38;5028407;28;20091;-68
2023/06/17 01:42:06;;;;;;;11.70;8.02;;;;;;;12.52;100.00;96594.59;5026889;28;20037;-67
2023/06/17 01:44:34;;;;;;;11.38;7.65;;;;;;;12.53;100.00;96601.69;5027685;28;20340;-68
2023/06/17 01:46:59;;;;;;;17.77;8.27;;;;;;;12.50;100.00;96596.19;5027751;28;20046;-68
2023/06/17 01:49:25;;;;;;;12.68;8.52;;;;;;;12.47;100.00;96596.94;5023554;28;20437;-68
2023/06/17 01:51:50;;;;;;;13.70;9.15;;;;;;;12.47;100.00;96596.94;5028151;28;20042;-68
2023/06/17 01:54:16;;;;;;;9.95;7.50;;;;;;;12.50;100.00;96601.66;5021131;28;20042;-68
2023/06/17 01:56:41;;;;;;;13.70;8.25;;;;;;;12.53;100.00;96603.63;5027417;28;20033;-68
2023/06/17 01:59:06;;;;;;;12.95;8.05;;;;;;;12.42;100.00;96596.13;5021869;28;20034;-66
2023/06/17 02:01:32;;;;;;;14.27;8.45;;;;;;;12.38;100.00;96595.28;5028003;28;20125;-68
2023/06/17 02:03:57;;;;;;;10.55;7.85;;;;;;;12.29;100.00;96596.78;5027921;28;20053;-68
2023/06/17 02:06:23;;;;;;;13.73;8.43;;;;;;;12.24;100.00;96595.16;5023510;28;20918;-67
2023/06/17 02:08:48;;;;;;;11.93;8.93;;;;;;;12.31;100.00;96597.19;5027855;28;20037;-68
2023/06/17 02:11:14;;;;;;;11.90;8.20;;;;;;;12.30;100.00;96595.59;5022607;28;20124;-66
2023/06/17 02:13:40;;;;;;;60.70;36.15;;;;;;;12.27;100.00;96599.91;5026775;28;20126;-66
2023/06/17 02:16:05;;;;;;;17.77;8.73;;;;;;;12.24;100.00;96595.97;5019802;28;20128;-67
2023/06/17 02:18:32;;;;;;;11.82;8.60;;;;;;;12.28;100.00;96589.72;5025112;28;20049;-67
2023/06/17 02:20:59;;;;;;;14.50;9.02;;;;;;;12.24;100.00;96595.97;5025034;28;20045;-68
2023/06/17 02:23:26;;;;;;;14.40;9.40;;;;;;;12.22;100.00;96606.53;5019041;28;20556;-67
2023/06/17 02:25:51;;;;;;;16.45;8.60;;;;;;;12.18;100.00;96596.69;5023507;28;20471;-67
2023/06/17 02:28:17;;;;;;;19.25;9.85;;;;;;;12.27;100.00;96605.41;5017289;28;20132;-68
2023/06/17 02:30:42;;;;;;;13.50;8.80;;;;;;;12.19;100.00;96595.50;5024204;28;20052;-69
2023/06/17 02:33:08;;;;;;;15.38;9.45;;;;;;;12.12;100.00;96606.44;5019756;28;20053;-68
2023/06/17 02:35:33;;;;;;;11.55;8.98;;;;;;;12.13;100.00;96597.81;5010168;28;20050;-68
2023/06/17 02:37:59;;;;;;;13.82;9.35;;;;;;;12.10;100.00;96597.78;5004526;28;20038;-68
2023/06/17 02:40:24;;;;;;;12.80;8.32;;;;;;;12.17;100.00;96590.44;4999298;28;20456;-68
2023/06/17 02:42:50;;;;;;;14.00;8.70;;;;;;;12.15;100.00;96598.22;5016018;28;20046;-69
2023/06/17 02:45:15;;;;;;;13.98;9.13;;;;;;;11.98;100.00;96591.44;5019425;28;20041;-68
2023/06/17 02:47:42;;;;;;;15.90;9.07;;;;;;;11.92;100.00;96594.88;5023231;28;20406;-68
2023/06/17 02:50:08;;;;;;;16.90;9.02;;;;;;;11.86;100.00;96589.72;5018854;28;20037;-68
2023/06/17 02:52:34;;;;;;;15.90;8.48;;;;;;;11.86;100.00;96588.94;5005297;28;20037;-68
2023/06/17 02:55:01;;;;;;;15.90;8.90;;;;;;;11.63;100.00;96591.84;5023762;28;20161;-69
2023/06/17 02:57:26;;;;;;;13.70;8.73;;;;;;;11.54;100.00;96583.13;5019193;28;20072;-67
2023/06/17 02:59:52;;;;;;;14.75;8.57;;;;;;;11.60;100.00;96585.16;5023531;28;20081;-68
2023/06/17 03:02:17;;;;;;;14.18;9.32;;;;;;;11.62;100.00;96587.53;5018499;28;20527;-68
2023/06/17 03:04:43;;;;;;;14.68;9.77;;;;;;;11.49;100.00;96589.75;5023138;28;20049;-69
2023/06/17 03:07:08;;;;;;;12.57;8.90;;;;;;;11.44;100.00;96588.13;5017454;28;20075;-68
2023/06/17 03:09:33;;;;;;;13.93;9.57;;;;;;;11.50;100.00;96594.06;5023893;28;20037;-68
2023/06/17 03:12:00;;;;;;;14.25;8.93;;;;;;;11.52;100.00;96591.72;5024003;28;20033;-68
2023/06/17 03:14:25;;;;;;;13.20;8.60;;;;;;;11.63;100.00;96591.84;5019945;28;20421;-68
2023/06/17 03:16:51;;;;;;;14.90;8.93;;;;;;;11.65;100.00;96597.75;5024410;28;20041;-68
2023/06/17 03:19:17;;;;;;;11.55;8.27;;;;;;;11.72;100.00;96595.09;5019631;28;20077;-69
2023/06/17 03:21:45;;;;;;;11.63;8.50;;;;;;;11.80;100.00;96601.44;5024773;28;20041;-68
2023/06/17 03:24:10;;;;;;;18.35;8.70;;;;;;;11.78;100.00;96601.81;5019434;28;20129;-68
2023/06/17 03:26:35;;;;;;;15.90;8.90;;;;;;;11.85;100.00;96592.84;5025088;28;20108;-69
2023/06/17 03:29:01;;;;;;;13.85;8.73;;;;;;;11.82;100.00;96599.09;5029670;28;20076;-68
2023/06/17 03:31:28;;;;;;;14.27;9.07;;;;;;;11.89;100.00;96601.91;5023230;28;20048;-68
2023/06/17 03:33:53;;;;;;;14.75;8.80;;;;;;;11.98;100.00;96598.88;5028234;28;20046;-68
2023/06/17 03:36:24;;;;;;;12.88;8.50;;;;;;;11.94;100.00;96598.84;5022051;28;20034;-69
2023/06/17 03:38:50;;;;;;;16.17;9.15;;;;;;;11.96;100.00;96596.50;5023780;28;20052;-68
2023/06/17 03:41:15;;;;;;;13.75;8.80;;;;;;;12.10;100.00;96595.88;5018575;28;20087;-69
2023/06/17 03:43:41;;;;;;;15.38;9.07;;;;;;;12.24;100.00;96595.97;5022958;28;20033;-69
2023/06/17 03:46:06;;;;;;;15.27;8.35;;;;;;;12.10;100.00;96586.81;5018596;28;20122;-68
2023/06/17 03:48:32;;;;;;;12.48;8.80;;;;;;;12.01;100.00;96592.63;5023346;28;20456;-67
2023/06/17 03:50:57;;;;;;;12.48;8.15;;;;;;;12.17;100.00;96590.44;5022939;28;20053;-68
2023/06/17 03:53:22;;;;;;;14.20;8.88;;;;;;;12.22;100.00;96597.50;5000426;28;20499;-68
2023/06/17 03:55:48;;;;;;;13.77;8.38;;;;;;;12.36;100.00;96594.09;5023106;28;20056;-68
2023/06/17 03:58:14;;;;;;;12.43;8.57;;;;;;;12.41;100.00;96599.25;5017557;28;20123;-68
2023/06/17 04:00:41;;;;;;;13.15;8.60;;;;;;;12.52;99.34;96602.84;5025082;28;20064;-68
2023/06/17 04:03:06;;;;;;;14.85;7.93;;;;;;;12.63;98.58;96606.44;5018863;28;20152;-68
2023/06/17 04:05:33;;;;;;;14.60;8.13;;;;;;;12.67;98.20;96605.69;5023072;28;20132;-68
2023/06/17 04:08:02;;;;;;;12.55;8.30;;;;;;;12.81;96.91;96601.06;5022878;28;20052;-68
2023/06/17 04:10:28;;;;;;;12.35;7.82;;;;;;;12.94;96.41;96612.53;5037208;28;20144;-67
2023/06/17 04:12:56;;;;;;;14.25;8.23;;;;;;;13.08;94.95;96608.28;5036436;28;20049;-68
2023/06/17 04:15:22;;;;;;;13.52;9.02;;;;;;;13.20;94.34;96616.22;5019282;28;20134;-69
2023/06/17 04:17:47;;;;;;;12.60;8.27;;;;;;;13.31;93.84;96616.28;5020753;28;20037;-68
2023/06/17 04:20:12;;;;;;;18.90;8.38;;;;;;;13.41;93.07;96617.50;5017773;28;20065;-68
2023/06/17 04:22:42;;;;;;;14.80;8.88;;;;;;;13.56;91.03;96613.63;5021208;28;20087;-68
2023/06/17 04:25:10;;;;;;;12.02;8.35;;;;;;;13.65;91.26;96614.06;5017704;28;20084;-68
2023/06/17 04:27:36;;;;;;;14.02;8.05;;;;;;;13.89;89.57;96622.75;5022093;28;20045;-68
2023/06/17 04:30:04;;;;;;;11.65;8.00;;;;;;;14.09;88.56;96617.69;5018683;28;20128;-68
2023/06/17 04:32:29;;;;;;;12.85;8.07;;;;;;;14.33;87.01;96616.91;5020713;28;20390;-68
2023/06/17 04:34:55;;;;;;;12.95;8.07;;;;;;;14.65;85.03;96613.38;5021702;28;20037;-68
2023/06/17 04:37:20;;;;;;;16.52;8.60;;;;;;;15.00;82.70;96610.94;5018439;28;20533;-67
2023/06/17 04:39:46;;;;;;;11.65;8.00;;;;;;;15.48;80.28;96615.91;5039225;28;20147;-68
2023/06/17 04:42:16;;;;;;;11.23;7.88;;;;;;;15.97;77.15;96611.34;5025687;28;20044;-68
2023/06/17 04:44:42;;;;;;;14.68;8.45;;;;;;;16.28;74.68;96614.31;5013237;28;20503;-68
2023/06/17 04:47:10;;;;;;;13.18;7.88;;;;;;;16.60;72.24;96616.00;5014924;28;20069;-67
2023/06/17 04:49:41;;;;;;;13.93;7.35;;;;;;;17.14;70.41;96610.78;5022151;28;20053;-68
2023/06/17 04:52:06;;;;;;;13.68;7.55;;;;;;;18.12;65.01;96624.19;5015581;28;20437;-68
2023/06/17 04:54:34;;;;;;;12.77;7.32;;;;;;;18.96;61.12;96618.88;5020691;28;20049;-68
2023/06/17 04:56:59;;;;;;;10.27;7.20;;;;;;;19.77;57.51;96617.72;5021375;28;20524;-67
2023/06/17 04:59:24;;;;;;;15.32;6.68;;;;;;;20.46;54.18;96622.56;5015900;28;20132;-67
2023/06/17 05:01:50;;;;;;;15.88;7.30;;;;;;;21.04;52.24;96627.50;5021479;28;20048;-67
2023/06/17 05:04:15;;;;;;;9.45;6.88;;;;;;;21.40;51.61;96613.38;5016329;28;20042;-67
2023/06/17 05:06:41;;;;;;;12.50;7.20;;;;;;;21.89;49.72;96617.97;5020947;28;20038;-67
2023/06/17 05:09:07;;;;;;;12.85;6.93;;;;;;;22.45;47.75;96616.69;5015986;28;20042;-68
2023/06/17 05:11:33;;;;;;;12.05;7.03;;;;;;;22.56;46.31;96621.91;5021129;28;20425;-68
2023/06/17 05:13:58;;;;;;;9.57;6.30;;;;;;;23.20;45.85;96624.59;5020810;28;20042;-69
2023/06/17 05:16:24;;;;;;;12.50;5.90;;;;;;;23.69;44.51;96626.03;5016795;28;20107;-69
2023/06/17 05:18:49;;;;;;;13.20;7.03;;;;;;;24.38;43.29;96633.41;5022150;28;20045;-68
2023/06/17 05:21:20;;;;;;;10.13;6.90;;;;;;;24.32;42.16;96626.88;5016492;28;20201;-68
2023/06/17 05:23:45;;;;;;;11.20;6.10;;;;;;;24.52;42.13;96624.44;5021230;28;20075;-68
2023/06/17 05:26:11;;;;;;;12.10;6.80;;;;;;;24.65;41.98;96629.97;5015568;28;20046;-68
2023/06/17 05:28:36;;;;;;;9.40;6.43;;;;;;;25.89;40.10;96633.47;5020350;28;20038;-68
2023/06/17 05:31:01;;;;;;;11.63;6.53;;;;;;;26.50;38.32;96627.81;5021348;28;20084;-68
2023/06/17 05:33:29;;;;;;;8.98;6.10;;;;;;;26.74;38.10;96629.91;5015904;28;20041;-67
2023/06/17 05:35:54;;;;;;;10.48;6.40;;;;;;;27.11;37.48;96634.53;5023972;28;20087;-67
2023/06/17 05:38:20;;;;;;;9.48;6.10;;;;;;;27.55;37.15;96640.31;5016933;28;20045;-68
2023/06/17 05:40:45;;;;;;;9.43;6.45;;;;;;;28.16;35.49;96642.69;5022535;28;20100;-68
2023/06/17 05:43:11;;;;;;;9.38;6.32;;;;;;;28.01;35.27;96645.50;5013826;28;20037;-68
2023/06/17 05:45:36;;;;;;;10.40;6.30;;;;;;;28.24;35.06;96648.69;5021604;28;20044;-69
2023/06/17 05:48:01;;;;;;;15.30;6.75;;;;;;;28.70;34.65;96641.75;5021502;28;20124;-70
2023/06/17 05:50:27;;;;;;;10.60;5.65;;;;;;;29.30;33.93;96645.91;5021600;28;20041;-66
2023/06/17 05:52:52;;;;;;;10.63;6.60;;;;;;;29.41;33.29;96645.28;5024527;28;20033;-67
2023/06/17 05:55:18;;;;;;;10.48;5.75;;;;;;;29.25;33.66;96643.81;5018723;28;20060;-66
2023/06/17 05:57:43;;;;;;;10.13;6.25;;;;;;;29.30;33.63;96648.75;5024853;28;20084;-66
2023/06/17 06:00:09;;;;;;;11.68;6.55;;;;;;;29.68;32.75;96646.88;5020173;28;20490;-66
2023/06/17 06:02:34;;;;;;;12.48;6.00;;;;;;;29.80;32.17;96647.00;5024728;28;20037;-66
2023/06/17 06:05:00;;;;;;;9.75;6.22;;;;;;;29.01;33.30;96651.66;5024953;28;20111;-65
2023/06/17 06:07:25;;;;;;;8.55;5.55;;;;;;;29.52;32.17;96645.41;5018314;28;20545;-66
2023/06/17 06:09:50;;;;;;;11.38;6.55;;;;;;;28.50;34.28;96656.53;5024307;28;20042;-66
2023/06/17 06:12:16;;;;;;;11.32;6.30;;;;;;;27.48;35.37;96657.53;5018847;28;20041;-66
2023/06/17 06:14:41;;;;;;;9.07;6.45;;;;;;;23.67;41.73;96662.84;5028580;28;20060;-67
2023/06/17 06:17:07;;;;;;;13.15;9.93;;;;;;;23.46;44.14;96651.22;5022754;28;20585;-67
2023/06/17 06:19:32;;;;;;;11.00;7.75;;;;;;;24.00;43.41;96654.88;5024551;28;20049;-67
2023/06/17 06:21:57;;;;;;;8.10;5.97;;;;;;;24.45;43.18;96654.75;5025143;28;20045;-68
2023/06/17 06:24:23;;;;;;;10.55;6.40;;;;;;;26.55;39.28;96653.69;5019667;28;20795;-68
2023/06/17 06:26:48;;;;;;;12.45;6.88;;;;;;;23.70;44.77;96655.53;5023782;28;20510;-67
2023/06/17 06:29:14;;;;;;;9.65;7.10;;;;;;;23.92;44.60;96659.16;5025924;28;20112;-68
2023/06/17 06:31:42;;;;;;;10.73;7.70;;;;;;;21.82;49.26;96655.19;5024257;28;20038;-67
2023/06/17 06:34:08;;;;;;;10.55;7.78;;;;;;;21.29;53.69;96654.69;5019526;28;20711;-67
2023/06/17 06:36:33;;;;;;;12.50;7.47;;;;;;;22.13;50.91;96654.72;5024429;28;20047;-66
2023/06/17 06:38:59;;;;;;;11.52;7.63;;;;;;;22.72;49.05;96663.66;5024376;28;20124;-67
2023/06/17 06:41:25;;;;;;;13.07;7.25;;;;;;;22.71;51.19;96659.31;5019645;28;20041;-68
2023/06/17 06:43:50;;;;;;;15.35;7.00;;;;;;;23.57;47.86;96658.41;5023190;28;20499;-66
2023/06/17 06:46:16;;;;;;;12.82;7.40;;;;;;;25.65;43.78;96660.59;5019565;28;20041;-66
2023/06/17 06:48:41;;;;;;;10.55;7.28;;;;;;;25.38;43.48;96662.16;5024646;28;20128;-66
2023/06/17 06:51:07;;;;;;;9.98;6.30;;;;;;;27.43;39.54;96661.78;5018058;28;20038;-66
2023/06/17 06:53:32;;;;;;;11.18;7.18;;;;;;;27.84;38.21;96664.13;5023774;28;20046;-67
2023/06/17 06:55:57;;;;;;;10.02;6.80;;;;;;;25.42;42.21;96657.19;5023550;28;20038;-66
2023/06/17 06:58:23;;;;;;;13.48;6.50;;;;;;;25.75;43.32;96662.16;5018402;28;21006;-66
2023/06/17 07:00:48;;;;;;;13.23;7.20;;;;;;;26.73;41.28;96662.06;5024652;28;20037;-68
2023/06/17 07:03:13;;;;;;;13.15;6.93;;;;;;;28.02;37.74;96663.94;5020456;28;20107;-68
2023/06/17 07:05:39;;;;;;;15.32;7.10;;;;;;;28.52;37.30;96671.69;5025036;28;20631;-68
2023/06/17 07:08:04;;;;;;;10.52;6.07;;;;;;;29.76;35.30;96671.84;5020415;28;20041;-73
2023/06/17 07:10:30;;;;;;;43.33;36.78;;;;;;;31.04;32.99;96670.63;5023437;28;20041;-70
2023/06/17 07:12:56;;;;;;;9.85;6.38;;;;;;;31.02;32.77;96668.31;5023020;28;20042;-68
2023/06/17 07:15:21;;;;;;;9.52;6.75;;;;;;;31.69;32.23;96681.22;5018226;28;23110;-67
2023/06/17 07:17:47;;;;;;;9.10;6.90;;;;;;;29.98;34.36;96677.75;5021878;28;20037;-68
2023/06/17 07:20:12;;;;;;;12.00;7.13;;;;;;;28.10;37.74;96672.78;5018438;28;20040;-67
2023/06/17 07:22:37;;;;;;;9.18;6.30;;;;;;;29.67;35.93;96672.75;5022800;28;20049;-70
2023/06/17 07:25:03;;;;;;;11.93;6.85;;;;;;;28.72;37.05;96679.47;5019484;28;20140;-70
2023/06/17 07:27:28;;;;;;;10.32;7.65;;;;;;;26.45;41.89;96667.78;5001155;28;20110;-66
2023/06/17 07:29:54;;;;;;;9.60;6.63;;;;;;;29.22;36.94;96675.81;5022709;28;20048;-66
2023/06/17 07:32:20;;;;;;;8.60;6.70;;;;;;;28.40;37.50;96678.41;5018735;28;20046;-67
2023/06/17 07:34:46;;;;;;;10.75;7.65;;;;;;;26.70;40.10;96671.44;5019658;28;20049;-67
2023/06/17 07:37:11;;;;;;;7.93;5.55;;;;;;;28.13;38.97;96679.50;5017915;28;20132;-66
2023/06/17 07:39:37;;;;;;;9.90;6.45;;;;;;;29.77;35.82;96674.19;5023036;28;20499;-65
2023/06/17 07:42:02;;;;;;;9.48;6.57;;;;;;;30.38;34.89;96672.47;5022090;28;20056;-67
2023/06/17 07:44:28;;;;;;;9.45;6.45;;;;;;;30.73;33.54;96666.56;5021399;28;20074;-67
2023/06/17 07:46:53;;;;;;;10.48;7.10;;;;;;;31.42;32.25;96669.31;5023219;28;20475;-67
2023/06/17 07:49:18;;;;;;;11.95;6.22;;;;;;;31.40;32.58;96665.41;5017935;28;20037;-66
2023/06/17 07:51:44;;;;;;;10.70;6.75;;;;;;;32.07;31.29;96670.56;5023242;28;20137;-68
2023/06/17 07:54:09;;;;;;;12.30;7.00;;;;;;;32.24;30.91;96672.63;5017372;28;20037;-65
2023/06/17 07:56:35;;;;;;;11.52;7.72;;;;;;;31.51;32.41;96682.50;5030366;28;20042;-68
2023/06/17 07:59:00;;;;;;;12.75;6.78;;;;;;;31.11;33.32;96672.22;5041461;28;20037;-70
2023/06/17 08:01:25;;;;;;;10.10;6.63;;;;;;;30.09;34.22;96675.03;5021378;28;20073;-67
2023/06/17 08:03:51;;;;;;;12.13;7.47;;;;;;;30.40;33.73;96670.69;5022922;28;20116;-66
2023/06/17 08:06:16;;;;;;;12.20;7.05;;;;;;;26.89;39.92;96658.84;5010608;28;20049;-67
2023/06/17 08:08:42;;;;;;;14.13;9.27;;;;;;;24.46;45.52;96664.72;5004083;28;20041;-65
2023/06/17 08:11:08;;;;;;;10.27;7.95;;;;;;;26.11;42.55;96654.97;4998107;28;20038;-66
2023/06/17 08:13:33;;;;;;;11.55;7.57;;;;;;;27.54;40.37;96660.47;5003055;28;20042;-67
2023/06/17 08:15:58;;;;;;;10.73;6.65;;;;;;;28.07;39.45;96656.84;5007854;28;20053;-68
2023/06/17 08:18:24;;;;;;;11.25;7.22;;;;;;;28.15;39.02;96651.63;5017458;28;20455;-67
2023/06/17 08:20:49;;;;;;;9.35;7.05;;;;;;;28.13;38.85;96648.53;5022536;28;20045;-67
2023/06/17 08:23:15;;;;;;;12.65;8.63;;;;;;;27.78;38.62;96654.78;5016270;28;20184;-66
2023/06/17 08:25:41;;;;;;;12.88;8.13;;;;;;;27.21;40.24;96653.66;5038100;28;20025;-68
2023/06/17 08:28:06;;;;;;;12.30;7.65;;;;;;;27.98;38.97;96643.66;5032290;28;20045;-66
2023/06/17 08:30:31;;;;;;;14.02;7.65;;;;;;;27.97;38.28;96647.72;5021707;28;20519;-68
2023/06/17 08:32:57;;;;;;;13.90;7.85;;;;;;;27.93;37.86;96644.34;5022210;28;20045;-68
2023/06/17 08:35:23;;;;;;;12.30;7.65;;;;;;;27.95;38.02;96646.69;5017888;28;20706;-67
2023/06/17 08:37:48;;;;;;;15.40;7.43;;;;;;;27.76;38.69;96643.22;5020221;28;20371;-67
2023/06/17 08:40:15;;;;;;;11.27;8.25;;;;;;;28.05;39.07;96639.66;5012908;28;20053;-67
2023/06/17 08:42:41;;;;;;;13.43;8.05;;;;;;;27.74;38.71;96640.13;5014327;28;20057;-66
2023/06/17 08:45:08;;;;;;;14.13;8.30;;;;;;;27.19;39.98;96633.69;5016234;28;20513;-66
2023/06/17 08:47:35;;;;;;;11.50;7.43;;;;;;;26.98;41.16;96632.72;5024255;28;20077;-68
2023/06/17 08:50:02;;;;;;;11.85;8.40;;;;;;;27.17;40.13;96638.22;5022595;28;20037;-69
2023/06/17 08:52:31;;;;;;;17.05;8.25;;;;;;;26.72;40.69;96635.22;5018624;28;20048;-68
2023/06/17 08:54:58;;;;;;;10.35;7.38;;;;;;;27.10;41.20;96633.75;5021454;28;20132;-67
2023/06/17 08:57:24;;;;;;;10.32;7.57;;;;;;;27.53;40.66;96633.59;5017273;28;20103;-67
2023/06/17 08:59:49;;;;;;;11.05;7.85;;;;;;;26.69;40.43;96636.19;5021389;28;20041;-67
2023/06/17 09:02:15;;;;;;;15.88;8.68;;;;;;;27.00;41.35;96627.41;5015092;28;20049;-68
2023/06/17 09:04:41;;;;;;;12.75;8.13;;;;;;;27.23;40.02;96628.66;5022118;28;20490;-67
2023/06/17 09:07:09;;;;;;;14.07;8.80;;;;;;;27.58;39.00;96633.69;5016306;28;20045;-69
2023/06/17 09:09:35;;;;;;;15.32;8.20;;;;;;;27.48;39.30;96632.25;5022236;28;20522;-67
2023/06/17 09:12:04;;;;;;;12.10;7.10;;;;;;;27.24;38.72;96635.84;5022511;28;20044;-70
2023/06/17 09:14:30;;;;;;;12.63;7.32;;;;;;;27.10;38.87;96636.56;5021391;28;20433;-66
2023/06/17 09:16:55;;;;;;;10.13;6.85;;;;;;;26.89;39.64;96630.75;5022087;28;20041;-68
2023/06/17 09:19:22;;;;;;;13.00;7.20;;;;;;;27.24;38.44;96644.28;5016298;28;20033;-70
2023/06/17 09:21:48;;;;;;;10.50;7.50;;;;;;;27.13;38.38;96634.81;5021831;28;20475;-68
2023/06/17 09:24:14;;;;;;;9.88;7.25;;;;;;;26.29;38.71;96638.06;5020522;28;20052;-69
2023/06/17 09:26:44;;;;;;;11.77;7.50;;;;;;;26.34;38.69;96625.38;5025216;28;20529;-69
2023/06/17 09:29:11;;;;;;;13.88;7.47;;;;;;;26.76;38.46;96629.41;5020813;28;20049;-69
2023/06/17 09:31:53;;;;;;;13.15;6.60;;;;;;;27.16;37.59;96622.63;5023762;28;20423;-69
2023/06/17 09:34:22;;;;;;;12.98;7.25;;;;;;;27.40;36.95;96625.41;5020839;28;20049;-68
2023/06/17 09:37:03;;;;;;;11.45;7.22;;;;;;;27.20;37.42;96626.78;5025438;28;20048;-69
2023/06/17 09:39:30;;;;;;;9.77;6.60;;;;;;;27.29;36.74;96628.00;5023664;28;20132;-67
2023/06/17 09:41:56;;;;;;;11.32;7.30;;;;;;;27.73;36.23;96619.66;5025399;28;20135;-68
2023/06/17 09:44:23;;;;;;;9.43;6.30;;;;;;;27.15;37.58;96619.00;5020513;28;21548;-69
2023/06/17 09:46:49;;;;;;;12.73;7.63;;;;;;;27.18;36.60;96620.09;5028995;28;20061;-68
2023/06/17 09:49:23;;;;;;;11.95;7.22;;;;;;;27.49;36.43;96613.31;5025221;28;20111;-68
2023/06/17 09:51:51;;;;;;;10.55;6.47;;;;;;;27.97;35.83;96611.16;5028592;28;20042;-69
2023/06/17 09:54:17;;;;;;;10.77;6.70;;;;;;;27.62;35.95;96616.63;5020312;28;20139;-68
2023/06/17 09:56:44;;;;;;;10.38;6.53;;;;;;;27.52;35.32;96620.81;5025117;28;20049;-69
2023/06/17 09:59:10;;;;;;;10.23;6.30;;;;;;;27.27;36.15;96609.56;5021751;28;20049;-67
2023/06/17 10:01:39;;;;;;;9.40;6.82;;;;;;;27.73;35.54;96613.22;5028702;28;20045;-68
2023/06/17 10:04:05;;;;;;;10.73;6.47;;;;;;;27.60;35.04;96613.53;5019764;28;20056;-70
2023/06/17 10:06:34;;;;;;;8.93;5.70;;;;;;;28.04;34.53;96615.63;5027863;28;20064;-68
2023/06/17 10:09:04;;;;;;;9.50;6.53;;;;;;;27.73;34.39;96604.78;5025881;28;20049;-68
2023/06/17 10:11:31;;;;;;;9.85;6.18;;;;;;;27.45;34.76;96596.63;5025294;28;20076;-68
2023/06/17 10:14:01;;;;;;;10.27;6.22;;;;;;;27.58;35.30;96599.94;5025778;28;20045;-67
2023/06/17 10:16:31;;;;;;;12.27;6.10;;;;;;;27.20;36.02;96595.88;5020082;28;20053;-68
2023/06/17 10:18:59;;;;;;;11.88;6.10;;;;;;;27.09;35.76;96590.78;5024549;28;20060;-67
2023/06/17 10:21:27;;;;;;;10.73;6.13;;;;;;;26.59;36.55;96590.47;5018667;28;20101;-68
2023/06/17 10:23:54;;;;;;;8.43;5.88;;;;;;;26.82;35.81;96594.56;5024586;28;20099;-66
2023/06/17 10:26:21;;;;;;;7.78;5.70;;;;;;;26.54;34.92;96587.53;5020013;28;20049;-68
2023/06/17 10:29:01;;;;;;;8.18;5.80;;;;;;;26.33;35.71;96588.13;5024266;28;20128;-67
2023/06/17 10:31:30;;;;;;;9.57;5.38;;;;;;;26.56;32.38;96579.41;5018855;28;20119;-66
2023/06/17 10:33:57;;;;;;;8.90;5.40;;;;;;;26.72;33.67;96581.06;5023898;28;20044;-67
2023/06/17 10:36:24;;;;;;;8.77;5.45;;;;;;;26.71;32.59;96580.31;5019319;28;20057;-66
2023/06/17 10:39:04;;;;;;;8.20;5.72;;;;;;;26.28;32.81;96574.72;5024457;28;20037;-66
2023/06/17 10:41:38;;;;;;;10.13;6.00;;;;;;;26.52;33.77;96571.16;5023647;28;20133;-66
2023/06/17 10:44:35;;;;;;;7.40;5.28;;;;;;;27.00;31.58;96574.00;5020680;28;20117;-69
2023/06/17 10:47:15;;;;;;;8.20;5.55;;;;;;;26.80;30.80;96574.63;5023696;28;20579;-68
2023/06/17 10:49:41;;;;;;;13.23;5.97;;;;;;;26.89;31.53;96568.16;5023429;28;20655;-68
2023/06/17 10:52:14;;;;;;;10.27;5.63;;;;;;;26.97;29.67;96560.91;5020114;28;20072;-69
2023/06/17 10:54:54;;;;;;;7.95;4.80;;;;;;;26.69;27.28;96561.09;5024319;28;20128;-67
2023/06/17 10:57:32;;;;;;;9.70;5.38;;;;;;;26.75;26.54;96560.47;5019449;28;20099;-67
2023/06/17 11:00:00;;;;;;;7.60;5.32;;;;;;;26.23;26.22;96561.31;5024050;28;20178;-67
2023/06/17 11:02:25;;;;;;;7.40;5.30;;;;;;;26.57;26.61;96555.69;5019668;28;20056;-68
2023/06/17 11:04:51;;;;;;;7.60;4.72;;;;;;;26.69;27.16;96555.50;5023387;28;20034;-69
2023/06/17 11:07:26;;;;;;;6.55;4.75;;;;;;;26.40;25.98;96549.69;5019728;28;20038;-70
2023/06/17 11:09:51;;;;;;;9.30;4.57;;;;;;;25.85;26.59;96543.06;5024135;28;20536;-68
2023/06/17 11:12:16;;;;;;;7.43;4.95;;;;;;;26.09;26.79;96542.38;5019389;28;20045;-67
2023/06/17 11:14:42;;;;;;;9.15;4.93;;;;;;;26.20;27.98;96542.66;5023321;28;20045;-69
2023/06/17 11:17:08;;;;;;;6.13;4.00;;;;;;;26.48;25.48;96548.09;5018711;28;20045;-68
2023/06/17 11:19:33;;;;;;;11.73;5.40;;;;;;;26.45;24.20;96544.22;5024400;28;20044;-69
2023/06/17 11:22:03;;;;;;;5.60;4.07;;;;;;;26.21;25.15;96538.56;5023312;28;20037;-68